Terminal Aerodrome Forecast
Issued by NWS Charleston, WV

Current Version | Previous Version | Graphics & Text | Print | Product List | Glossary Off
Versions: 1 2 3 4 5 6 7 8 9 10 11 12 13 14 15 16 17 18 19 20 21 22 23

000
FTUS41 KRLX 270400 AAB
TAFEKN
TAF AMD
KEKN 270424Z 2704/2724 00000KT 2SM -SN BR SCT008 BKN015 OVC023
     FM270800 00000KT 4SM BR BKN013 OVC025
     FM271400 29004KT 3SM BR OVC015
     FM271700 30008KT 5SM -SHSN OVC022=

USA.gov is the U.S. government's official web portal to all federal, state and local government web resources and services.